• Join FlightAware (Why Join?)
  • Login
  • US Flag 
10:04PM EDT


 

Airport Tracker/Info


-or-


 

Live Flight TrackerFlight Track Log ✈ ASQ6115 ✈ 28-Apr-2013 ✈ KMSN - KORD

Flight Track Log - Related Links

Times and Time Zones

All times are in EDT time to prevent confusion due to time zone crossing. See the ASQ6115 flight status page for this flight to view local times or setup timezone preferences in your user account.

Time Position Orientation Groundspeed Altitude Reporting Facility
EDT Latitude Longitude Course Direction KTS MPH feet Rate Location/Type
08:25PM 43.0053 -89.2933 162° South 214 246 6,000  Level Chicago Center
08:26PM 42.8739 -89.2239 144° Southeast  Level FlightAware Approximate
08:26PM 42.9150 -89.2550 163° South 283 326 9,000  Level Chicago Center
08:27PM 42.8090 -89.1981 170° South  Level FlightAware Approximate
08:27PM 42.8344 -89.2211 163° South 299 344 11,300  Level Chicago Center
08:28PM 42.7422 -89.1798 162° South  Level FlightAware Approximate
08:28PM 42.7442 -89.1842 163° South 333 383 12,500  Level Chicago Center
08:29PM 42.6693 -89.1474 162° South  Level FlightAware Approximate
08:29PM 42.6525 -89.1450 163° South 344 396 13,000  Level Chicago Center
08:30PM 42.5664 -89.0981 158° South 339 390 12,300 -900 Descending Chicago Center
08:31PM 42.4981 -88.9997 133° Southeast 312 359 11,200 -720 Descending Chicago Center
08:32PM 42.4939 -88.8897 93° East 291 335 10,800 -780 Descending Chicago Center
08:33PM 42.5047 -88.7814 82° East 289 333 9,600 -900 Descending Chicago Center
08:34PM 42.4850 -88.6781 104° East 301 346 9,000 -300 Descending Chicago Center
08:35PM 42.4439 -88.5794 119° Southeast 303 349 9,000  Level Chicago Center
08:36PM 42.3958 -88.4700 121° Southeast 294 338 9,000 -300 Level Chicago Center
08:37PM 42.3572 -88.3764 119° Southeast 288 331 8,500 -540 Descending Chicago Center
08:38PM 42.3144 -88.3014 128° Southeast 286 329 7,900 -1,020 Descending Chicago Center
08:39PM 42.2425 -88.2211 140° Southeast 282 325 6,500 -1,320 Descending Chicago Center
08:40PM 42.1861 -88.1542 139° Southeast 274 315 5,200 -1,020 Descending Chicago Center
08:41PM 42.1319 -88.0925 140° Southeast 261 300 4,400 -1,200 Descending Chicago Center
08:42PM 42.1000 -88.0667 149° Southeast 232 267 3,500 -1,320 Descending Chicago TRACON
08:43PM 42.0667 -88.0167 132° Southeast 197 227 2,500 -900 Descending Chicago TRACON
08:44PM 42.0333 -87.9833 143° Southeast 149 171 1,800 -780 Descending Chicago TRACON